createdAt,value
2022-10-23T00:01:41.718Z,87.26
2022-10-23T00:04:12.381Z,86.31
2022-10-23T00:06:38.940Z,85.24
2022-10-23T00:09:06.400Z,84.90
2022-10-23T00:11:33.992Z,84.88
2022-10-23T00:14:01.427Z,84.67
2022-10-23T00:16:28.356Z,84.69
2022-10-23T00:18:54.943Z,84.98
2022-10-23T00:21:21.461Z,85.06
2022-10-23T00:23:48.115Z,85.65
2022-10-23T00:26:17.638Z,85.49
2022-10-23T00:28:45.085Z,85.73
2022-10-23T00:31:12.083Z,85.80
2022-10-23T00:33:38.687Z,85.79
2022-10-23T00:36:07.012Z,86.01
2022-10-23T00:38:33.820Z,85.63
2022-10-23T00:41:00.276Z,83.74
2022-10-23T00:43:27.709Z,81.27
2022-10-23T00:45:54.478Z,80.35
2022-10-23T00:48:21.110Z,79.85
2022-10-23T00:50:48.577Z,78.83
2022-10-23T00:53:15.906Z,78.60
2022-10-23T00:55:47.036Z,77.38
2022-10-23T00:58:14.463Z,77.04
2022-10-23T01:00:48.662Z,76.36
2022-10-23T01:03:16.896Z,76.11
2022-10-23T01:06:03.610Z,76.30
2022-10-23T01:08:49.052Z,76.62
2022-10-23T01:11:20.540Z,76.59
2022-10-23T01:13:57.806Z,77.09
2022-10-23T01:16:30.259Z,77.73
2022-10-23T01:19:04.964Z,79.73
2022-10-23T01:21:39.338Z,80.32
2022-10-23T01:24:10.008Z,80.49
2022-10-23T01:26:45.789Z,80.95
2022-10-23T01:29:21.988Z,80.96
2022-10-23T01:31:56.398Z,80.65
2022-10-23T01:34:28.111Z,81.02
2022-10-23T01:36:55.687Z,81.34
2022-10-23T01:39:27.794Z,81.49
2022-10-23T01:42:04.772Z,81.78
2022-10-23T01:44:31.222Z,82.44
2022-10-23T01:46:57.867Z,83.16
2022-10-23T01:49:30.266Z,83.27
2022-10-23T01:51:59.406Z,84.11
2022-10-23T01:54:29.558Z,84.74
2022-10-23T01:56:57.733Z,86.13
2022-10-23T01:59:32.349Z,86.77
2022-10-23T02:02:00.497Z,87.29
2022-10-23T02:04:36.554Z,87.46
2022-10-23T02:07:03.272Z,87.64
2022-10-23T02:09:29.730Z,87.52
2022-10-23T02:12:05.497Z,86.76
2022-10-23T02:14:46.053Z,87.28
2022-10-23T02:17:20.878Z,87.75
2022-10-23T02:19:55.917Z,87.54
2022-10-23T02:22:37.049Z,88.54
2022-10-23T02:25:30.344Z,88.62
2022-10-23T02:27:58.513Z,88.06
2022-10-23T02:30:25.000Z,88.67
2022-10-23T02:32:53.817Z,89.08
2022-10-23T02:35:21.554Z,89.33
2022-10-23T02:37:55.057Z,89.84
2022-10-23T02:40:22.606Z,90.31
2022-10-23T02:42:53.344Z,90.92
2022-10-23T02:48:10.278Z,91.54
2022-10-23T02:50:42.833Z,91.92
2022-10-23T02:53:25.809Z,92.09
2022-10-23T02:55:52.276Z,92.37
2022-10-23T02:58:34.267Z,93.08
2022-10-23T03:01:12.360Z,93.30
2022-10-23T03:03:42.469Z,93.33
2022-10-23T03:06:11.062Z,93.09
2022-10-23T03:08:41.850Z,93.15
2022-10-23T03:11:08.341Z,93.24
2022-10-23T03:13:34.814Z,93.44
2022-10-23T03:16:01.435Z,93.20
2022-10-23T03:18:27.905Z,92.99
2022-10-23T03:20:54.370Z,92.93
2022-10-23T03:23:20.831Z,92.83
2022-10-23T03:25:47.409Z,92.43
2022-10-23T03:28:13.909Z,92.19
2022-10-23T03:30:40.804Z,92.13
2022-10-23T03:33:07.381Z,92.17
2022-10-23T03:35:33.895Z,91.82
2022-10-23T03:38:00.328Z,91.41
2022-10-23T03:40:26.886Z,91.52
2022-10-23T03:42:53.399Z,91.74
2022-10-23T03:45:20.343Z,92.00
2022-10-23T03:47:46.902Z,91.74
2022-10-23T03:50:15.970Z,91.44
2022-10-23T03:52:42.838Z,91.38
2022-10-23T03:55:09.708Z,91.41
2022-10-23T03:57:36.237Z,91.43
2022-10-23T04:00:03.698Z,91.42
2022-10-23T04:02:30.323Z,91.12
2022-10-23T04:04:56.903Z,91.07
2022-10-23T04:07:23.538Z,90.88
2022-10-23T04:09:50.075Z,90.60
2022-10-23T04:12:16.595Z,90.41
2022-10-23T04:14:43.148Z,90.77
2022-10-23T04:17:09.746Z,90.94
2022-10-23T04:19:36.240Z,90.88
2022-10-23T04:22:02.732Z,91.19
2022-10-23T04:24:29.274Z,91.23
2022-10-23T04:26:55.790Z,91.37
2022-10-23T04:29:24.528Z,91.56
2022-10-23T04:31:51.686Z,91.26
2022-10-23T04:34:18.723Z,91.39
2022-10-23T04:36:45.264Z,91.66
2022-10-23T04:39:11.868Z,91.54
2022-10-23T04:41:39.023Z,91.16
2022-10-23T04:44:05.562Z,91.53
2022-10-23T04:46:32.037Z,91.58
2022-10-23T04:48:58.541Z,91.93
2022-10-23T04:51:25.121Z,92.43
2022-10-23T04:53:51.694Z,92.36
2022-10-23T04:56:18.457Z,92.43
2022-10-23T04:58:45.065Z,92.61
2022-10-23T05:01:11.667Z,92.86
2022-10-23T05:03:38.251Z,92.99
2022-10-23T05:06:05.058Z,93.23
2022-10-23T05:08:31.589Z,93.52
2022-10-23T05:10:58.099Z,93.66
2022-10-23T05:13:24.685Z,94.01
2022-10-23T05:15:52.013Z,94.01
2022-10-23T05:18:39.478Z,93.99
2022-10-23T05:21:05.920Z,94.04
2022-10-23T05:23:33.875Z,94.28
2022-10-23T05:26:00.455Z,94.09
2022-10-23T05:28:26.940Z,94.10
2022-10-23T05:30:53.527Z,93.80
2022-10-23T05:33:19.956Z,93.76
2022-10-23T05:35:46.907Z,93.64
2022-10-23T05:38:14.184Z,93.04
2022-10-23T05:40:40.799Z,92.68
2022-10-23T05:43:09.458Z,92.62
2022-10-23T05:45:36.065Z,92.25
2022-10-23T05:48:11.141Z,92.13
2022-10-23T05:50:43.566Z,92.28
2022-10-23T05:53:10.556Z,92.46
2022-10-23T05:55:37.599Z,92.24
2022-10-23T05:58:04.400Z,92.16
2022-10-23T06:00:31.383Z,92.07
2022-10-23T06:03:01.295Z,92.05
2022-10-23T06:05:27.915Z,91.74
2022-10-23T06:08:00.824Z,91.51
2022-10-23T06:10:27.502Z,91.51
2022-10-23T06:12:54.000Z,92.04
2022-10-23T06:15:20.496Z,92.21
2022-10-23T06:17:46.967Z,92.25
2022-10-23T06:20:13.518Z,92.29
2022-10-23T06:22:42.129Z,92.16
2022-10-23T06:25:14.706Z,92.84
2022-10-23T06:27:41.159Z,92.61
2022-10-23T06:30:08.193Z,92.75
2022-10-23T06:32:37.764Z,92.79
2022-10-23T06:35:05.411Z,92.96
2022-10-23T06:37:33.693Z,93.20
2022-10-23T06:40:00.262Z,93.30
2022-10-23T06:42:29.464Z,93.20
2022-10-23T06:44:56.295Z,93.34
2022-10-23T06:47:22.776Z,93.43
2022-10-23T06:49:49.199Z,93.44
2022-10-23T06:52:41.832Z,93.39
2022-10-23T06:55:02.286Z,93.07
2022-10-23T06:57:28.794Z,92.88
2022-10-23T06:59:55.424Z,92.94
2022-10-23T07:02:21.890Z,92.84
2022-10-23T07:04:48.431Z,92.71
2022-10-23T07:07:14.943Z,92.81
2022-10-23T07:09:41.516Z,92.74
2022-10-23T07:12:08.032Z,92.51
2022-10-23T07:14:34.569Z,92.12
2022-10-23T07:17:01.116Z,91.54
2022-10-23T07:19:27.978Z,91.54
2022-10-23T07:21:58.043Z,91.50
2022-10-23T07:24:26.805Z,91.44
2022-10-23T07:26:53.436Z,91.24
2022-10-23T07:29:24.987Z,91.13
2022-10-23T07:31:51.515Z,91.76
2022-10-23T07:34:18.009Z,91.66
2022-10-23T07:36:44.650Z,91.73
2022-10-23T07:39:12.412Z,91.87
2022-10-23T07:41:43.976Z,91.89
2022-10-23T07:44:27.017Z,92.02
2022-10-23T07:46:58.223Z,92.09
2022-10-23T07:49:24.692Z,92.19
2022-10-23T07:52:05.165Z,92.18
2022-10-23T07:54:33.710Z,92.21
2022-10-23T07:57:00.729Z,92.21
2022-10-23T07:59:27.243Z,92.56
2022-10-23T08:01:56.819Z,92.36
2022-10-23T08:04:25.224Z,92.19
2022-10-23T08:06:56.273Z,92.13
2022-10-23T08:09:22.818Z,91.90
2022-10-23T08:11:53.759Z,91.99
2022-10-23T08:14:21.168Z,91.49
2022-10-23T08:16:50.594Z,91.46
2022-10-23T08:19:17.379Z,91.26
2022-10-23T08:21:43.931Z,91.39
2022-10-23T08:24:17.493Z,91.16
2022-10-23T08:26:44.186Z,90.49
2022-10-23T08:29:15.296Z,90.30
2022-10-23T08:31:41.825Z,90.17
2022-10-23T08:34:08.517Z,89.59
2022-10-23T08:36:37.816Z,89.09
2022-10-23T08:39:04.468Z,88.93
2022-10-23T08:41:50.855Z,88.90
2022-10-23T08:44:29.623Z,88.91
2022-10-23T08:47:00.924Z,89.20
2022-10-23T08:49:30.624Z,89.60
2022-10-23T08:52:00.482Z,90.03
2022-10-23T08:54:33.309Z,90.37
2022-10-23T08:57:24.247Z,90.84
2022-10-23T08:59:58.156Z,90.86
2022-10-23T09:02:26.921Z,91.05
2022-10-23T09:04:59.933Z,91.14
2022-10-23T09:07:32.352Z,91.36
2022-10-23T09:10:01.995Z,91.77
2022-10-23T09:12:29.617Z,91.79
2022-10-23T09:15:05.291Z,91.88
2022-10-23T09:17:33.265Z,92.16
2022-10-23T09:20:00.692Z,92.33
2022-10-23T09:22:31.054Z,92.56
2022-10-23T09:24:58.041Z,92.65
2022-10-23T09:27:24.598Z,92.49
2022-10-23T09:29:59.323Z,92.53
2022-10-23T09:32:39.687Z,92.35
2022-10-23T09:35:06.697Z,92.35
2022-10-23T09:37:34.652Z,92.09
2022-10-23T09:40:21.501Z,91.89
2022-10-23T09:42:56.432Z,91.54
2022-10-23T09:45:25.209Z,90.64
2022-10-23T09:47:51.684Z,89.42
2022-10-23T09:50:21.513Z,88.34
2022-10-23T09:52:57.199Z,88.46
2022-10-23T09:55:25.278Z,89.09
2022-10-23T09:57:53.131Z,89.58
2022-10-23T10:00:21.272Z,89.27
2022-10-23T10:03:07.352Z,89.43
2022-10-23T10:05:36.382Z,89.43
2022-10-23T10:08:12.723Z,89.42
2022-10-23T10:10:42.535Z,89.64
2022-10-23T10:13:28.653Z,89.81
2022-10-23T10:16:27.772Z,89.69
2022-10-23T10:19:07.136Z,88.87
2022-10-23T10:21:52.236Z,87.66
2022-10-23T10:24:26.082Z,87.06
2022-10-23T10:26:59.072Z,86.81
2022-10-23T10:29:37.728Z,85.96
2022-10-23T10:32:09.930Z,85.46
2022-10-23T10:34:41.366Z,85.54
2022-10-23T10:37:11.318Z,85.08
2022-10-23T10:40:04.227Z,84.74
2022-10-23T10:42:42.165Z,84.47
2022-10-23T10:45:32.925Z,84.62
2022-10-23T10:47:59.417Z,84.55
2022-10-23T10:50:40.674Z,83.96
2022-10-23T10:53:18.534Z,83.76
2022-10-23T10:55:50.547Z,83.51
2022-10-23T10:58:17.165Z,83.43
2022-10-23T11:00:46.833Z,83.39
2022-10-23T11:03:27.602Z,83.12
2022-10-23T11:05:55.059Z,82.46
2022-10-23T11:08:56.106Z,82.01
2022-10-23T11:11:30.427Z,82.23
2022-10-23T11:13:59.525Z,82.26
2022-10-23T11:16:31.282Z,82.52
2022-10-23T11:18:57.852Z,82.51
2022-10-23T11:21:38.429Z,82.44
2022-10-23T11:24:17.624Z,82.49
2022-10-23T11:27:03.041Z,82.90
2022-10-23T11:29:32.415Z,82.74
2022-10-23T11:32:12.034Z,82.71
2022-10-23T11:34:57.277Z,82.84
2022-10-23T11:37:24.796Z,83.00
2022-10-23T11:40:00.709Z,83.04
2022-10-23T11:42:30.830Z,83.40
2022-10-23T11:45:03.800Z,83.59
2022-10-23T11:47:38.839Z,83.06
2022-10-23T11:50:09.100Z,83.15
2022-10-23T11:52:42.067Z,82.97
2022-10-23T11:58:09.560Z,83.15
2022-10-23T12:00:45.019Z,83.13
2022-10-23T12:03:19.520Z,83.08
2022-10-23T12:05:46.347Z,83.30
2022-10-23T12:08:26.377Z,83.06
2022-10-23T12:10:56.059Z,82.67
2022-10-23T12:13:35.548Z,82.09
2022-10-23T12:16:07.045Z,82.18
2022-10-23T12:18:34.072Z,82.06
2022-10-23T12:21:02.001Z,82.11
2022-10-23T12:23:43.165Z,81.96
2022-10-23T12:26:33.395Z,81.52
2022-10-23T12:29:19.257Z,81.04
2022-10-23T12:31:58.696Z,81.15
2022-10-23T12:34:28.119Z,81.28
2022-10-23T12:36:54.676Z,81.30
2022-10-23T12:39:35.845Z,81.14
2022-10-23T12:42:02.477Z,80.93
2022-10-23T12:44:29.230Z,81.10
2022-10-23T12:47:03.757Z,81.00
2022-10-23T12:49:33.691Z,81.08
2022-10-23T12:52:05.464Z,80.72
2022-10-23T12:54:33.087Z,80.51
2022-10-23T12:56:59.951Z,80.05
2022-10-23T12:59:34.493Z,79.63
2022-10-23T13:02:01.691Z,79.44
2022-10-23T13:04:34.135Z,79.13
2022-10-23T13:07:05.058Z,78.64
2022-10-23T13:09:34.661Z,78.84
2022-10-23T13:12:03.565Z,78.45
2022-10-23T13:14:32.525Z,78.74
2022-10-23T13:17:00.042Z,78.57
2022-10-23T13:19:27.606Z,78.51
2022-10-23T13:21:54.399Z,78.51
2022-10-23T13:24:22.083Z,78.79
2022-10-23T13:26:49.185Z,78.84
2022-10-23T13:29:35.986Z,79.15
2022-10-23T13:32:11.893Z,79.85
2022-10-23T13:34:38.525Z,79.62
2022-10-23T13:37:24.875Z,80.01
2022-10-23T13:40:01.728Z,79.85
2022-10-23T13:42:28.291Z,80.32
2022-10-23T13:44:57.832Z,80.07
2022-10-23T13:47:26.739Z,79.80
2022-10-23T13:49:53.276Z,79.27
2022-10-23T13:52:22.250Z,79.48
2022-10-23T13:54:55.737Z,79.40
2022-10-23T13:57:25.184Z,78.85
2022-10-23T13:59:52.005Z,78.84
2022-10-23T14:02:22.617Z,77.11
2022-10-23T14:04:50.470Z,75.65
2022-10-23T14:07:17.004Z,75.34
2022-10-23T14:09:43.571Z,74.89
2022-10-23T14:12:11.942Z,74.78
2022-10-23T14:14:38.714Z,75.41
2022-10-23T14:17:13.201Z,74.95
2022-10-23T14:20:01.467Z,74.75
2022-10-23T14:22:29.574Z,76.18
2022-10-23T14:25:02.360Z,77.92
2022-10-23T14:27:33.363Z,78.50
2022-10-23T14:29:59.968Z,78.44
2022-10-23T14:32:26.582Z,79.01
2022-10-23T14:34:54.480Z,79.79
2022-10-23T14:37:21.713Z,80.02
2022-10-23T14:39:50.174Z,80.44
2022-10-23T14:42:19.763Z,81.36
2022-10-23T14:44:46.719Z,80.94
2022-10-23T14:47:13.629Z,81.18
2022-10-23T14:49:44.208Z,81.96
2022-10-23T14:52:11.370Z,83.24
2022-10-23T14:55:06.837Z,83.24
2022-10-23T14:57:37.676Z,82.95
2022-10-23T15:00:05.362Z,83.64
2022-10-23T15:02:32.327Z,84.55
2022-10-23T15:04:58.947Z,85.02
2022-10-23T15:07:25.627Z,85.35
2022-10-23T15:09:55.580Z,85.55
2022-10-23T15:12:22.192Z,86.36
2022-10-23T15:14:49.108Z,86.47
2022-10-23T15:17:15.980Z,87.30
2022-10-23T15:19:42.772Z,87.85
2022-10-23T15:22:09.493Z,87.65
2022-10-23T15:24:36.311Z,87.79
2022-10-23T15:27:03.067Z,87.91
2022-10-23T15:29:29.794Z,87.92
2022-10-23T15:31:59.434Z,88.16
2022-10-23T15:34:28.394Z,88.28
2022-10-23T15:36:56.170Z,88.47
2022-10-23T15:39:24.032Z,88.55
2022-10-23T15:41:52.143Z,88.78
2022-10-23T15:44:19.850Z,88.60
2022-10-23T15:46:46.965Z,88.70
2022-10-23T15:49:13.798Z,88.64
2022-10-23T15:51:42.461Z,89.22
2022-10-23T15:54:16.831Z,89.55
2022-10-23T15:56:44.149Z,89.84
2022-10-23T15:59:10.810Z,89.60
2022-10-23T16:01:37.363Z,89.20
2022-10-23T16:04:04.229Z,89.35
2022-10-23T16:06:30.912Z,89.27
2022-10-23T16:08:57.495Z,89.52
2022-10-23T16:11:28.947Z,89.46
2022-10-23T16:13:56.530Z,89.59
2022-10-23T16:16:23.723Z,89.50
2022-10-23T16:18:50.570Z,89.50
2022-10-23T16:21:21.726Z,89.68
2022-10-23T16:23:48.982Z,90.35
2022-10-23T16:26:15.477Z,90.63
2022-10-23T16:28:43.953Z,90.41
2022-10-23T16:31:19.202Z,90.32
2022-10-23T16:33:47.462Z,90.30
2022-10-23T16:36:14.075Z,90.42
2022-10-23T16:38:40.605Z,90.55
2022-10-23T16:41:07.313Z,90.58
2022-10-23T16:43:33.905Z,90.82
2022-10-23T16:46:07.873Z,91.03
2022-10-23T16:48:35.717Z,91.07
2022-10-23T16:51:06.178Z,91.11
2022-10-23T16:53:33.300Z,90.84
2022-10-23T16:56:00.104Z,90.98
2022-10-23T16:58:26.979Z,90.80
2022-10-23T17:01:05.044Z,90.76
2022-10-23T17:03:34.582Z,90.87
2022-10-23T17:06:02.286Z,90.87
2022-10-23T17:08:29.831Z,90.90
2022-10-23T17:11:04.040Z,91.25
2022-10-23T17:13:30.742Z,91.33
2022-10-23T17:16:07.708Z,91.48
2022-10-23T17:18:37.657Z,91.40
2022-10-23T17:21:07.927Z,91.36
2022-10-23T17:23:35.320Z,91.29
2022-10-23T17:26:04.436Z,91.51
2022-10-23T17:28:31.969Z,91.69
2022-10-23T17:30:58.778Z,91.85
2022-10-23T17:33:25.378Z,91.53
2022-10-23T17:35:52.460Z,91.51
2022-10-23T17:38:19.273Z,91.39
2022-10-23T17:40:47.381Z,91.08
2022-10-23T17:43:15.656Z,90.96
2022-10-23T17:45:45.229Z,90.92
2022-10-23T17:48:13.303Z,91.39
2022-10-23T17:50:43.501Z,91.61
2022-10-23T17:53:10.233Z,91.87
2022-10-23T17:55:40.586Z,92.00
2022-10-23T17:58:08.120Z,92.34
2022-10-23T18:00:40.425Z,92.15
2022-10-23T18:03:09.723Z,92.11
2022-10-23T18:05:36.624Z,92.09
2022-10-23T18:10:44.512Z,91.79
2022-10-23T18:13:11.209Z,91.95
2022-10-23T18:15:39.506Z,91.97
2022-10-23T18:18:14.107Z,91.85
2022-10-23T18:20:41.432Z,91.46
2022-10-23T18:23:09.041Z,91.17
2022-10-23T18:25:35.743Z,91.30
2022-10-23T18:28:02.712Z,91.55
2022-10-23T18:30:29.647Z,91.41
2022-10-23T18:32:58.373Z,91.44
2022-10-23T18:35:25.516Z,91.17
2022-10-23T18:37:52.330Z,90.94
2022-10-23T18:40:19.945Z,90.74
2022-10-23T18:42:48.322Z,91.04
2022-10-23T18:45:15.324Z,90.74
2022-10-23T18:47:45.360Z,91.06
2022-10-23T18:50:12.341Z,91.19
2022-10-23T18:52:39.008Z,91.06
2022-10-23T18:55:09.055Z,91.34
2022-10-23T18:57:36.756Z,91.44
2022-10-23T19:00:07.116Z,91.07
2022-10-23T19:02:33.942Z,90.92
2022-10-23T19:05:00.703Z,90.66
2022-10-23T19:07:27.381Z,90.82
2022-10-23T19:09:55.110Z,90.97
2022-10-23T19:12:22.869Z,91.32
2022-10-23T19:14:49.539Z,91.31
2022-10-23T19:17:23.961Z,91.32
2022-10-23T19:19:54.105Z,91.34
2022-10-23T19:22:23.115Z,91.37
2022-10-23T19:24:56.382Z,91.36
2022-10-23T19:27:23.555Z,91.46
2022-10-23T19:29:51.907Z,91.33
2022-10-23T19:32:18.757Z,91.39
2022-10-23T19:34:46.722Z,92.03
2022-10-23T19:39:45.599Z,92.32
2022-10-23T19:42:12.344Z,92.68
2022-10-23T19:44:38.913Z,92.75
2022-10-23T19:47:05.595Z,92.74
2022-10-23T19:49:32.277Z,92.54
2022-10-23T19:51:58.978Z,92.76
2022-10-23T19:54:25.694Z,92.08
2022-10-23T19:56:53.478Z,92.60
2022-10-23T19:59:20.149Z,92.53
2022-10-23T20:01:48.877Z,92.36
2022-10-23T20:04:18.251Z,91.91
2022-10-23T20:06:44.975Z,91.79
2022-10-23T20:09:11.622Z,91.64
2022-10-23T20:11:39.629Z,91.70
2022-10-23T20:14:06.998Z,91.44
2022-10-23T20:16:38.793Z,91.28
2022-10-23T20:19:09.096Z,91.42
2022-10-23T20:21:38.026Z,91.50
2022-10-23T20:24:04.898Z,91.30
2022-10-23T20:26:31.540Z,91.24
2022-10-23T20:28:58.406Z,91.53
2022-10-23T20:31:26.979Z,92.18
2022-10-23T20:33:54.711Z,92.16
2022-10-23T20:36:30.463Z,92.95
2022-10-23T20:38:59.043Z,93.00
2022-10-23T20:41:28.501Z,93.49
2022-10-23T20:43:56.334Z,93.28
2022-10-23T20:46:23.251Z,93.47
2022-10-23T20:48:50.154Z,94.04
2022-10-23T20:51:19.721Z,94.30
2022-10-23T20:53:47.789Z,94.26
2022-10-23T20:56:17.475Z,94.41
2022-10-23T20:58:44.550Z,94.36
2022-10-23T21:01:14.397Z,94.74
2022-10-23T21:03:41.092Z,94.74
2022-10-23T21:06:13.743Z,94.72
2022-10-23T21:08:41.272Z,94.70
2022-10-23T21:11:11.188Z,94.79
2022-10-23T21:13:37.977Z,94.76
2022-10-23T21:16:27.665Z,95.10
2022-10-23T21:18:57.361Z,95.25
2022-10-23T21:21:24.846Z,95.34
2022-10-23T21:23:53.578Z,95.26
2022-10-23T21:26:22.640Z,95.59
2022-10-23T21:28:56.045Z,95.46
2022-10-23T21:31:33.755Z,96.27
2022-10-23T21:34:00.495Z,95.97
2022-10-23T21:36:29.158Z,96.54
2022-10-23T21:38:58.802Z,96.15
2022-10-23T21:41:34.391Z,96.10
2022-10-23T21:44:03.870Z,95.92
2022-10-23T21:46:32.582Z,95.77
2022-10-23T21:49:00.657Z,95.66
2022-10-23T21:51:37.198Z,95.42
2022-10-23T21:54:06.009Z,95.39
2022-10-23T21:56:40.600Z,95.47
2022-10-23T21:59:12.733Z,95.48
2022-10-23T22:01:40.979Z,95.43
2022-10-23T22:04:12.602Z,95.31
2022-10-23T22:06:39.369Z,95.47
2022-10-23T22:09:07.059Z,95.63
2022-10-23T22:11:34.639Z,95.38
2022-10-23T22:14:04.056Z,95.77
2022-10-23T22:16:30.885Z,96.00
2022-10-23T22:18:58.085Z,96.17
2022-10-23T22:21:27.449Z,96.27
2022-10-23T22:23:56.264Z,96.54
2022-10-23T22:26:29.693Z,96.89
2022-10-23T22:28:59.428Z,97.01
2022-10-23T22:31:29.049Z,97.32
2022-10-23T22:33:56.585Z,97.23
2022-10-23T22:36:23.934Z,97.35
2022-10-23T22:38:50.616Z,97.46
2022-10-23T22:41:18.411Z,97.59
2022-10-23T22:43:45.195Z,97.63
2022-10-23T22:46:18.647Z,97.43
2022-10-23T22:48:45.864Z,97.65
2022-10-23T22:51:18.860Z,97.71
2022-10-23T22:53:46.902Z,97.60
2022-10-23T22:56:19.788Z,97.51
2022-10-23T22:58:47.049Z,97.77
2022-10-23T23:01:18.578Z,97.53
2022-10-23T23:03:45.474Z,97.57
2022-10-23T23:06:12.765Z,97.54
2022-10-23T23:08:40.533Z,97.91
2022-10-23T23:11:09.569Z,97.76
2022-10-23T23:13:36.275Z,97.88
2022-10-23T23:16:03.884Z,98.41
2022-10-23T23:18:31.446Z,98.52
2022-10-23T23:21:06.256Z,98.62
2022-10-23T23:23:36.612Z,98.55
2022-10-23T23:26:06.197Z,98.39
2022-10-23T23:28:35.067Z,98.17
2022-10-23T23:31:28.197Z,98.28
2022-10-23T23:33:55.137Z,98.22
2022-10-23T23:36:27.158Z,97.79
2022-10-23T23:38:55.924Z,97.64
2022-10-23T23:41:24.233Z,97.79
2022-10-23T23:43:51.008Z,97.69
2022-10-23T23:46:18.313Z,97.72
2022-10-23T23:48:48.477Z,97.76
2022-10-23T23:51:20.728Z,97.49
2022-10-23T23:53:51.444Z,97.44
2022-10-23T23:56:20.988Z,97.67
2022-10-23T23:58:47.657Z,97.69
